SECU/CUE METAR and TAF weather

Enter ICAO airport designator
Station Type Date Time Source
SECU METAR 2021/05/14 03:00 UTC NOAA

SECU 140300Z AUTO VRB02KT ////NDV NCD 14/13 Q1027


Station Type Date Time Source
SECU Decoded METAR 2021/05/14 03:00 UTC NOAA

Cuenca / Mariscal Lamar, Ecuador (SECU) 02-53S 078-59W 2531M
May 13, 2021 - 11:00 PM EDT / 2021.05.14 0300 UTC
Wind: Variable at 2 MPH (2 KT):0
Temperature: 57 F (14 C)
Dew Point: 55 F (13 C)
Relative Humidity: 93%
Pressure (altimeter): 30.33 in. Hg (1027 hPa)
ob: SECU 140300Z AUTO VRB02KT ////NDV NCD 14/13 Q1027
cycle: 3

Station Type Date Time Source
SECU TAF 2019/10/28 06:45 UTC NOAA

TAF SECU 280435Z 2806/2906 VRB03KT 9999 FEW010 BKN033
BECMG 2814/2815 05005KT BKN040 BKN100 TX20/2819Z TN12/2811Z

Example: see airport list